sensor_id;sensor_type;location;lat;lon;timestamp;P1;durP1;ratioP1;P2;durP2;ratioP2
3149;SDS011;32503;47.748;8.960;2023-08-12T00:00:23;5.43;;;5.13;;
3149;SDS011;32503;47.748;8.960;2023-08-12T00:02:51;5.97;;;5.57;;
3149;SDS011;32503;47.748;8.960;2023-08-12T00:05:18;5.60;;;5.30;;
3149;SDS011;32503;47.748;8.960;2023-08-12T00:07:45;5.60;;;5.30;;
3149;SDS011;32503;47.748;8.960;2023-08-12T00:10:12;5.37;;;5.07;;
3149;SDS011;32503;47.748;8.960;2023-08-12T00:12:39;5.10;;;4.90;;
3149;SDS011;32503;47.748;8.960;2023-08-12T00:15:09;5.70;;;5.37;;
3149;SDS011;32503;47.748;8.960;2023-08-12T00:17:37;5.73;;;5.43;;
3149;SDS011;32503;47.748;8.960;2023-08-12T00:20:06;6.40;;;5.93;;
3149;SDS011;32503;47.748;8.960;2023-08-12T00:22:36;6.10;;;5.80;;
3149;SDS011;32503;47.748;8.960;2023-08-12T00:25:03;6.93;;;6.50;;
3149;SDS011;32503;47.748;8.960;2023-08-12T00:27:32;6.43;;;6.13;;
3149;SDS011;32503;47.748;8.960;2023-08-12T00:29:59;6.80;;;6.20;;
3149;SDS011;32503;47.748;8.960;2023-08-12T00:32:27;6.87;;;6.37;;
3149;SDS011;32503;47.748;8.960;2023-08-12T00:34:55;8.80;;;6.97;;
3149;SDS011;32503;47.748;8.960;2023-08-12T00:37:22;6.80;;;6.30;;
3149;SDS011;32503;47.748;8.960;2023-08-12T00:39:49;6.40;;;6.00;;
3149;SDS011;32503;47.748;8.960;2023-08-12T00:42:16;6.23;;;5.87;;
3149;SDS011;32503;47.748;8.960;2023-08-12T00:44:43;6.90;;;5.97;;
3149;SDS011;32503;47.748;8.960;2023-08-12T00:47:10;5.60;;;5.40;;
3149;SDS011;32503;47.748;8.960;2023-08-12T00:49:39;5.57;;;5.37;;
3149;SDS011;32503;47.748;8.960;2023-08-12T00:52:09;6.40;;;6.00;;
3149;SDS011;32503;47.748;8.960;2023-08-12T00:54:36;5.93;;;5.63;;
3149;SDS011;32503;47.748;8.960;2023-08-12T00:57:03;5.90;;;5.60;;
3149;SDS011;32503;47.748;8.960;2023-08-12T00:59:32;6.10;;;5.80;;
3149;SDS011;32503;47.748;8.960;2023-08-12T01:02:02;6.17;;;5.77;;
3149;SDS011;32503;47.748;8.960;2023-08-12T01:04:30;5.73;;;5.33;;
3149;SDS011;32503;47.748;8.960;2023-08-12T01:06:58;4.87;;;4.67;;
3149;SDS011;32503;47.748;8.960;2023-08-12T01:09:25;5.93;;;5.57;;
3149;SDS011;32503;47.748;8.960;2023-08-12T01:11:54;5.00;;;4.80;;
3149;SDS011;32503;47.748;8.960;2023-08-12T01:14:31;5.50;;;5.20;;
3149;SDS011;32503;47.748;8.960;2023-08-12T01:17:06;4.83;;;4.63;;
3149;SDS011;32503;47.748;8.960;2023-08-12T01:19:37;5.20;;;5.00;;
3149;SDS011;32503;47.748;8.960;2023-08-12T01:22:07;12.20;;;5.30;;
3149;SDS011;32503;47.748;8.960;2023-08-12T01:24:38;3.80;;;3.67;;
3149;SDS011;32503;47.748;8.960;2023-08-12T01:27:08;5.67;;;5.37;;
3149;SDS011;32503;47.748;8.960;2023-08-12T01:29:38;5.10;;;4.90;;
3149;SDS011;32503;47.748;8.960;2023-08-12T01:32:11;5.40;;;5.10;;
3149;SDS011;32503;47.748;8.960;2023-08-12T01:34:50;5.33;;;5.03;;
3149;SDS011;32503;47.748;8.960;2023-08-12T01:37:23;5.30;;;5.00;;
3149;SDS011;32503;47.748;8.960;2023-08-12T01:39:55;5.23;;;4.97;;
3149;SDS011;32503;47.748;8.960;2023-08-12T01:42:27;5.47;;;5.17;;
3149;SDS011;32503;47.748;8.960;2023-08-12T01:44:55;5.50;;;5.10;;
3149;SDS011;32503;47.748;8.960;2023-08-12T01:47:22;5.50;;;5.10;;
3149;SDS011;32503;47.748;8.960;2023-08-12T01:49:50;5.30;;;5.00;;
3149;SDS011;32503;47.748;8.960;2023-08-12T01:52:17;5.80;;;5.40;;
3149;SDS011;32503;47.748;8.960;2023-08-12T01:54:44;5.37;;;5.07;;
3149;SDS011;32503;47.748;8.960;2023-08-12T01:57:12;5.20;;;4.90;;
3149;SDS011;32503;47.748;8.960;2023-08-12T01:59:39;5.30;;;5.00;;
3149;SDS011;32503;47.748;8.960;2023-08-12T02:02:08;5.10;;;4.90;;
3149;SDS011;32503;47.748;8.960;2023-08-12T02:04:36;6.33;;;5.57;;
3149;SDS011;32503;47.748;8.960;2023-08-12T02:07:07;5.10;;;4.90;;
3149;SDS011;32503;47.748;8.960;2023-08-12T02:09:34;5.90;;;5.40;;
3149;SDS011;32503;47.748;8.960;2023-08-12T02:12:01;4.10;;;3.90;;
3149;SDS011;32503;47.748;8.960;2023-08-12T02:14:30;5.23;;;5.00;;
3149;SDS011;32503;47.748;8.960;2023-08-12T02:16:57;5.87;;;5.47;;
3149;SDS011;32503;47.748;8.960;2023-08-12T02:19:25;5.07;;;4.80;;
3149;SDS011;32503;47.748;8.960;2023-08-12T02:21:52;6.70;;;5.83;;
3149;SDS011;32503;47.748;8.960;2023-08-12T02:24:19;5.40;;;5.00;;
3149;SDS011;32503;47.748;8.960;2023-08-12T02:26:46;5.73;;;5.30;;
3149;SDS011;32503;47.748;8.960;2023-08-12T02:29:13;5.60;;;5.30;;
3149;SDS011;32503;47.748;8.960;2023-08-12T02:31:41;5.83;;;5.43;;
3149;SDS011;32503;47.748;8.960;2023-08-12T02:34:08;6.23;;;5.83;;
3149;SDS011;32503;47.748;8.960;2023-08-12T02:36:35;5.93;;;5.63;;
3149;SDS011;32503;47.748;8.960;2023-08-12T02:39:03;4.43;;;4.23;;
3149;SDS011;32503;47.748;8.960;2023-08-12T02:41:30;5.20;;;5.00;;
3149;SDS011;32503;47.748;8.960;2023-08-12T02:43:58;5.00;;;4.63;;
3149;SDS011;32503;47.748;8.960;2023-08-12T02:46:25;5.33;;;5.03;;
3149;SDS011;32503;47.748;8.960;2023-08-12T02:48:53;5.43;;;4.93;;
3149;SDS011;32503;47.748;8.960;2023-08-12T02:51:20;6.00;;;5.60;;
3149;SDS011;32503;47.748;8.960;2023-08-12T02:53:47;5.27;;;4.97;;
3149;SDS011;32503;47.748;8.960;2023-08-12T02:56:14;5.27;;;5.00;;
3149;SDS011;32503;47.748;8.960;2023-08-12T02:58:41;5.53;;;5.23;;
3149;SDS011;32503;47.748;8.960;2023-08-12T03:01:08;5.57;;;5.27;;
3149;SDS011;32503;47.748;8.960;2023-08-12T03:03:35;5.20;;;4.90;;
3149;SDS011;32503;47.748;8.960;2023-08-12T03:06:04;5.60;;;5.40;;
3149;SDS011;32503;47.748;8.960;2023-08-12T03:08:31;5.60;;;5.20;;
3149;SDS011;32503;47.748;8.960;2023-08-12T03:10:58;5.40;;;5.10;;
3149;SDS011;32503;47.748;8.960;2023-08-12T03:13:26;5.43;;;5.13;;
3149;SDS011;32503;47.748;8.960;2023-08-12T03:15:53;4.30;;;4.10;;
3149;SDS011;32503;47.748;8.960;2023-08-12T03:18:20;5.60;;;5.20;;
3149;SDS011;32503;47.748;8.960;2023-08-12T03:20:47;4.70;;;4.50;;
3149;SDS011;32503;47.748;8.960;2023-08-12T03:23:16;5.07;;;4.87;;
3149;SDS011;32503;47.748;8.960;2023-08-12T03:25:43;5.73;;;5.43;;
3149;SDS011;32503;47.748;8.960;2023-08-12T03:28:12;5.10;;;4.90;;
3149;SDS011;32503;47.748;8.960;2023-08-12T03:30:39;5.50;;;5.20;;
3149;SDS011;32503;47.748;8.960;2023-08-12T03:33:06;4.70;;;4.50;;
3149;SDS011;32503;47.748;8.960;2023-08-12T03:35:36;4.87;;;4.67;;
3149;SDS011;32503;47.748;8.960;2023-08-12T03:38:04;4.90;;;4.70;;
3149;SDS011;32503;47.748;8.960;2023-08-12T03:40:32;5.70;;;5.40;;
3149;SDS011;32503;47.748;8.960;2023-08-12T03:43:03;5.73;;;5.43;;
3149;SDS011;32503;47.748;8.960;2023-08-12T03:45:30;4.93;;;4.73;;
3149;SDS011;32503;47.748;8.960;2023-08-12T03:47:57;5.60;;;5.20;;
3149;SDS011;32503;47.748;8.960;2023-08-12T03:50:24;5.50;;;5.17;;
3149;SDS011;32503;47.748;8.960;2023-08-12T03:52:51;5.73;;;5.43;;
3149;SDS011;32503;47.748;8.960;2023-08-12T03:55:18;5.50;;;5.20;;
3149;SDS011;32503;47.748;8.960;2023-08-12T03:57:47;5.63;;;5.23;;
3149;SDS011;32503;47.748;8.960;2023-08-12T04:00:14;5.63;;;5.33;;
3149;SDS011;32503;47.748;8.960;2023-08-12T04:02:41;5.63;;;5.33;;
3149;SDS011;32503;47.748;8.960;2023-08-12T04:05:09;5.40;;;5.10;;
3149;SDS011;32503;47.748;8.960;2023-08-12T04:07:36;6.40;;;6.00;;
3149;SDS011;32503;47.748;8.960;2023-08-12T04:10:04;5.67;;;5.23;;
3149;SDS011;32503;47.748;8.960;2023-08-12T04:12:32;5.93;;;5.63;;
3149;SDS011;32503;47.748;8.960;2023-08-12T04:15:00;5.60;;;5.33;;
3149;SDS011;32503;47.748;8.960;2023-08-12T04:17:30;5.57;;;5.27;;
3149;SDS011;32503;47.748;8.960;2023-08-12T04:19:58;5.53;;;5.23;;
3149;SDS011;32503;47.748;8.960;2023-08-12T04:22:25;5.93;;;5.53;;
3149;SDS011;32503;47.748;8.960;2023-08-12T04:24:53;5.27;;;5.03;;
3149;SDS011;32503;47.748;8.960;2023-08-12T04:27:20;5.47;;;5.03;;
3149;SDS011;32503;47.748;8.960;2023-08-12T04:29:47;6.13;;;5.80;;
3149;SDS011;32503;47.748;8.960;2023-08-12T04:32:15;6.53;;;6.10;;
3149;SDS011;32503;47.748;8.960;2023-08-12T04:34:42;5.37;;;4.97;;
3149;SDS011;32503;47.748;8.960;2023-08-12T04:37:10;5.90;;;5.60;;
3149;SDS011;32503;47.748;8.960;2023-08-12T04:39:37;6.10;;;5.70;;
3149;SDS011;32503;47.748;8.960;2023-08-12T04:42:05;5.33;;;5.03;;
3149;SDS011;32503;47.748;8.960;2023-08-12T04:44:32;5.47;;;5.00;;
3149;SDS011;32503;47.748;8.960;2023-08-12T04:46:59;6.80;;;6.40;;
3149;SDS011;32503;47.748;8.960;2023-08-12T04:49:28;6.57;;;6.20;;
3149;SDS011;32503;47.748;8.960;2023-08-12T04:51:55;5.93;;;5.53;;
3149;SDS011;32503;47.748;8.960;2023-08-12T04:54:22;6.30;;;5.90;;
3149;SDS011;32503;47.748;8.960;2023-08-12T04:56:49;6.43;;;6.13;;
3149;SDS011;32503;47.748;8.960;2023-08-12T04:59:16;7.10;;;6.57;;
3149;SDS011;32503;47.748;8.960;2023-08-12T05:01:43;7.30;;;6.60;;
3149;SDS011;32503;47.748;8.960;2023-08-12T05:04:10;6.80;;;6.30;;
3149;SDS011;32503;47.748;8.960;2023-08-12T05:06:39;5.63;;;5.33;;
3149;SDS011;32503;47.748;8.960;2023-08-12T05:09:06;6.47;;;6.03;;
3149;SDS011;32503;47.748;8.960;2023-08-12T05:11:33;6.70;;;6.27;;
3149;SDS011;32503;47.748;8.960;2023-08-12T05:14:00;6.90;;;6.43;;
3149;SDS011;32503;47.748;8.960;2023-08-12T05:16:27;6.73;;;6.37;;
3149;SDS011;32503;47.748;8.960;2023-08-12T05:18:55;5.00;;;4.80;;
3149;SDS011;32503;47.748;8.960;2023-08-12T05:21:22;6.80;;;6.40;;
3149;SDS011;32503;47.748;8.960;2023-08-12T05:23:51;6.77;;;6.27;;
3149;SDS011;32503;47.748;8.960;2023-08-12T05:26:18;5.87;;;5.57;;
3149;SDS011;32503;47.748;8.960;2023-08-12T05:28:46;6.80;;;6.30;;
3149;SDS011;32503;47.748;8.960;2023-08-12T05:31:13;7.57;;;7.00;;
3149;SDS011;32503;47.748;8.960;2023-08-12T05:33:40;6.70;;;6.20;;
3149;SDS011;32503;47.748;8.960;2023-08-12T05:36:07;6.07;;;5.67;;
3149;SDS011;32503;47.748;8.960;2023-08-12T05:38:35;6.20;;;5.90;;
3149;SDS011;32503;47.748;8.960;2023-08-12T05:41:03;5.23;;;5.03;;
3149;SDS011;32503;47.748;8.960;2023-08-12T05:43:32;5.77;;;5.47;;
3149;SDS011;32503;47.748;8.960;2023-08-12T05:45:59;6.53;;;6.23;;
3149;SDS011;32503;47.748;8.960;2023-08-12T05:48:28;6.30;;;6.00;;
3149;SDS011;32503;47.748;8.960;2023-08-12T05:50:55;6.20;;;5.90;;
3149;SDS011;32503;47.748;8.960;2023-08-12T05:53:22;5.60;;;5.20;;
3149;SDS011;32503;47.748;8.960;2023-08-12T05:55:49;6.60;;;6.20;;
3149;SDS011;32503;47.748;8.960;2023-08-12T05:58:18;6.53;;;6.03;;
3149;SDS011;32503;47.748;8.960;2023-08-12T06:00:45;6.70;;;6.30;;
3149;SDS011;32503;47.748;8.960;2023-08-12T06:03:12;7.40;;;6.80;;
3149;SDS011;32503;47.748;8.960;2023-08-12T06:05:40;6.13;;;5.80;;
3149;SDS011;32503;47.748;8.960;2023-08-12T06:08:09;6.47;;;6.07;;
3149;SDS011;32503;47.748;8.960;2023-08-12T06:10:36;6.50;;;6.10;;
3149;SDS011;32503;47.748;8.960;2023-08-12T06:13:03;6.90;;;6.40;;
3149;SDS011;32503;47.748;8.960;2023-08-12T06:15:32;6.03;;;5.73;;
3149;SDS011;32503;47.748;8.960;2023-08-12T06:17:59;5.43;;;5.20;;
3149;SDS011;32503;47.748;8.960;2023-08-12T06:20:26;5.97;;;5.57;;
3149;SDS011;32503;47.748;8.960;2023-08-12T06:22:54;6.40;;;5.90;;
3149;SDS011;32503;47.748;8.960;2023-08-12T06:25:22;6.70;;;6.37;;
3149;SDS011;32503;47.748;8.960;2023-08-12T06:27:49;5.63;;;5.33;;
3149;SDS011;32503;47.748;8.960;2023-08-12T06:30:16;6.43;;;6.07;;
3149;SDS011;32503;47.748;8.960;2023-08-12T06:32:44;5.37;;;5.17;;
3149;SDS011;32503;47.748;8.960;2023-08-12T06:35:12;5.83;;;5.53;;
3149;SDS011;32503;47.748;8.960;2023-08-12T06:37:39;5.90;;;5.60;;
3149;SDS011;32503;47.748;8.960;2023-08-12T06:40:07;5.57;;;5.27;;
3149;SDS011;32503;47.748;8.960;2023-08-12T06:42:34;6.30;;;5.90;;
3149;SDS011;32503;47.748;8.960;2023-08-12T06:45:01;6.37;;;6.07;;
3149;SDS011;32503;47.748;8.960;2023-08-12T06:47:29;6.90;;;6.50;;
3149;SDS011;32503;47.748;8.960;2023-08-12T06:49:58;5.27;;;5.07;;
3149;SDS011;32503;47.748;8.960;2023-08-12T06:52:25;5.70;;;5.40;;
3149;SDS011;32503;47.748;8.960;2023-08-12T06:54:52;5.97;;;5.67;;
3149;SDS011;32503;47.748;8.960;2023-08-12T06:57:19;5.63;;;5.33;;
3149;SDS011;32503;47.748;8.960;2023-08-12T06:59:46;6.47;;;6.10;;
3149;SDS011;32503;47.748;8.960;2023-08-12T07:02:14;6.07;;;5.77;;
3149;SDS011;32503;47.748;8.960;2023-08-12T07:04:41;7.13;;;6.70;;
3149;SDS011;32503;47.748;8.960;2023-08-12T07:07:09;5.73;;;5.50;;
3149;SDS011;32503;47.748;8.960;2023-08-12T07:09:36;6.40;;;5.70;;
3149;SDS011;32503;47.748;8.960;2023-08-12T07:12:03;6.10;;;5.70;;
3149;SDS011;32503;47.748;8.960;2023-08-12T07:14:31;6.13;;;5.53;;
3149;SDS011;32503;47.748;8.960;2023-08-12T07:16:58;6.20;;;5.90;;
3149;SDS011;32503;47.748;8.960;2023-08-12T07:19:26;5.80;;;5.50;;
3149;SDS011;32503;47.748;8.960;2023-08-12T07:21:53;6.70;;;6.40;;
3149;SDS011;32503;47.748;8.960;2023-08-12T07:24:21;5.60;;;5.30;;
3149;SDS011;32503;47.748;8.960;2023-08-12T07:26:48;5.90;;;5.60;;
3149;SDS011;32503;47.748;8.960;2023-08-12T07:29:15;6.23;;;5.90;;
3149;SDS011;32503;47.748;8.960;2023-08-12T07:31:42;6.03;;;5.73;;
3149;SDS011;32503;47.748;8.960;2023-08-12T07:34:09;5.37;;;5.17;;
3149;SDS011;32503;47.748;8.960;2023-08-12T07:36:38;5.27;;;5.07;;
3149;SDS011;32503;47.748;8.960;2023-08-12T07:39:05;6.03;;;5.53;;
3149;SDS011;32503;47.748;8.960;2023-08-12T07:41:34;5.53;;;5.33;;
3149;SDS011;32503;47.748;8.960;2023-08-12T07:44:01;6.17;;;5.87;;
3149;SDS011;32503;47.748;8.960;2023-08-12T07:46:28;5.90;;;5.50;;
3149;SDS011;32503;47.748;8.960;2023-08-12T07:48:55;5.30;;;5.10;;
3149;SDS011;32503;47.748;8.960;2023-08-12T07:51:23;6.60;;;6.30;;
3149;SDS011;32503;47.748;8.960;2023-08-12T07:53:50;6.17;;;5.60;;
3149;SDS011;32503;47.748;8.960;2023-08-12T07:56:17;5.03;;;4.83;;
3149;SDS011;32503;47.748;8.960;2023-08-12T07:58:45;5.43;;;5.23;;
3149;SDS011;32503;47.748;8.960;2023-08-12T08:01:13;6.67;;;6.27;;
3149;SDS011;32503;47.748;8.960;2023-08-12T08:03:40;5.73;;;5.43;;
3149;SDS011;32503;47.748;8.960;2023-08-12T08:06:07;5.90;;;5.67;;
3149;SDS011;32503;47.748;8.960;2023-08-12T08:08:34;7.10;;;6.70;;
3149;SDS011;32503;47.748;8.960;2023-08-12T08:11:01;6.00;;;5.80;;
3149;SDS011;32503;47.748;8.960;2023-08-12T08:13:28;6.23;;;5.77;;
3149;SDS011;32503;47.748;8.960;2023-08-12T08:15:57;6.10;;;5.80;;
3149;SDS011;32503;47.748;8.960;2023-08-12T08:18:24;5.77;;;5.50;;
3149;SDS011;32503;47.748;8.960;2023-08-12T08:20:51;6.40;;;6.10;;
3149;SDS011;32503;47.748;8.960;2023-08-12T08:23:18;5.47;;;5.27;;
3149;SDS011;32503;47.748;8.960;2023-08-12T08:25:45;5.13;;;4.93;;
3149;SDS011;32503;47.748;8.960;2023-08-12T08:28:12;6.27;;;5.97;;
3149;SDS011;32503;47.748;8.960;2023-08-12T08:30:39;6.00;;;5.70;;
3149;SDS011;32503;47.748;8.960;2023-08-12T08:33:08;6.33;;;5.70;;
3149;SDS011;32503;47.748;8.960;2023-08-12T08:35:35;5.60;;;5.30;;
3149;SDS011;32503;47.748;8.960;2023-08-12T08:38:02;5.77;;;5.50;;
3149;SDS011;32503;47.748;8.960;2023-08-12T08:40:29;5.57;;;5.37;;
3149;SDS011;32503;47.748;8.960;2023-08-12T08:42:57;5.47;;;5.27;;
3149;SDS011;32503;47.748;8.960;2023-08-12T08:45:28;5.27;;;5.07;;
3149;SDS011;32503;47.748;8.960;2023-08-12T08:47:58;5.80;;;5.50;;
3149;SDS011;32503;47.748;8.960;2023-08-12T08:50:28;6.10;;;5.80;;
3149;SDS011;32503;47.748;8.960;2023-08-12T08:52:56;4.67;;;4.47;;
3149;SDS011;32503;47.748;8.960;2023-08-12T08:55:23;5.73;;;5.43;;
3149;SDS011;32503;47.748;8.960;2023-08-12T08:57:51;5.37;;;5.10;;
3149;SDS011;32503;47.748;8.960;2023-08-12T09:00:19;5.57;;;5.27;;
3149;SDS011;32503;47.748;8.960;2023-08-12T09:02:47;5.97;;;5.50;;
3149;SDS011;32503;47.748;8.960;2023-08-12T09:05:15;5.57;;;5.27;;
3149;SDS011;32503;47.748;8.960;2023-08-12T09:07:44;6.17;;;5.97;;
3149;SDS011;32503;47.748;8.960;2023-08-12T09:10:11;6.17;;;5.83;;
3149;SDS011;32503;47.748;8.960;2023-08-12T09:12:39;5.90;;;5.60;;
3149;SDS011;32503;47.748;8.960;2023-08-12T09:15:06;5.27;;;5.07;;
3149;SDS011;32503;47.748;8.960;2023-08-12T09:17:35;5.17;;;4.97;;
3149;SDS011;32503;47.748;8.960;2023-08-12T09:20:02;5.20;;;5.00;;
3149;SDS011;32503;47.748;8.960;2023-08-12T09:22:33;5.43;;;5.03;;
3149;SDS011;32503;47.748;8.960;2023-08-12T09:25:01;6.57;;;6.13;;
3149;SDS011;32503;47.748;8.960;2023-08-12T09:27:30;5.70;;;5.47;;
3149;SDS011;32503;47.748;8.960;2023-08-12T09:29:57;5.80;;;5.47;;
3149;SDS011;32503;47.748;8.960;2023-08-12T09:32:28;6.10;;;5.67;;
3149;SDS011;32503;47.748;8.960;2023-08-12T09:34:55;5.93;;;5.67;;
3149;SDS011;32503;47.748;8.960;2023-08-12T09:37:23;6.27;;;5.97;;
3149;SDS011;32503;47.748;8.960;2023-08-12T09:39:51;6.17;;;5.90;;
3149;SDS011;32503;47.748;8.960;2023-08-12T09:42:19;5.50;;;5.30;;
3149;SDS011;32503;47.748;8.960;2023-08-12T09:44:47;6.50;;;6.13;;
3149;SDS011;32503;47.748;8.960;2023-08-12T09:47:14;6.20;;;5.80;;
3149;SDS011;32503;47.748;8.960;2023-08-12T09:49:41;5.63;;;5.43;;
3149;SDS011;32503;47.748;8.960;2023-08-12T09:52:08;5.93;;;5.63;;
3149;SDS011;32503;47.748;8.960;2023-08-12T09:54:35;5.80;;;5.60;;
3149;SDS011;32503;47.748;8.960;2023-08-12T09:57:04;5.63;;;5.30;;
3149;SDS011;32503;47.748;8.960;2023-08-12T09:59:35;6.30;;;6.00;;
3149;SDS011;32503;47.748;8.960;2023-08-12T10:02:05;5.57;;;5.37;;
3149;SDS011;32503;47.748;8.960;2023-08-12T10:04:35;5.47;;;5.27;;
3149;SDS011;32503;47.748;8.960;2023-08-12T10:07:06;6.00;;;5.70;;
3149;SDS011;32503;47.748;8.960;2023-08-12T10:09:33;6.77;;;6.37;;
3149;SDS011;32503;47.748;8.960;2023-08-12T10:12:02;6.50;;;6.23;;
3149;SDS011;32503;47.748;8.960;2023-08-12T10:14:30;6.40;;;6.10;;
3149;SDS011;32503;47.748;8.960;2023-08-12T10:16:59;6.70;;;6.30;;
3149;SDS011;32503;47.748;8.960;2023-08-12T10:19:27;6.00;;;5.70;;
3149;SDS011;32503;47.748;8.960;2023-08-12T10:21:56;6.60;;;6.30;;
3149;SDS011;32503;47.748;8.960;2023-08-12T10:24:25;6.27;;;5.97;;
3149;SDS011;32503;47.748;8.960;2023-08-12T10:26:53;7.43;;;7.00;;
3149;SDS011;32503;47.748;8.960;2023-08-12T10:29:22;5.97;;;5.67;;
3149;SDS011;32503;47.748;8.960;2023-08-12T10:31:50;7.23;;;6.83;;
3149;SDS011;32503;47.748;8.960;2023-08-12T10:34:19;5.80;;;5.50;;
3149;SDS011;32503;47.748;8.960;2023-08-12T10:36:47;5.73;;;5.50;;
3149;SDS011;32503;47.748;8.960;2023-08-12T10:39:14;5.87;;;5.57;;
3149;SDS011;32503;47.748;8.960;2023-08-12T10:41:49;5.77;;;5.57;;
3149;SDS011;32503;47.748;8.960;2023-08-12T10:44:19;6.40;;;6.00;;
3149;SDS011;32503;47.748;8.960;2023-08-12T10:46:51;5.87;;;5.57;;
3149;SDS011;32503;47.748;8.960;2023-08-12T10:49:21;6.10;;;5.80;;
3149;SDS011;32503;47.748;8.960;2023-08-12T10:51:49;6.60;;;6.30;;
3149;SDS011;32503;47.748;8.960;2023-08-12T10:54:19;5.57;;;5.27;;
3149;SDS011;32503;47.748;8.960;2023-08-12T10:57:03;6.30;;;6.00;;
3149;SDS011;32503;47.748;8.960;2023-08-12T10:59:47;5.90;;;5.60;;
3149;SDS011;32503;47.748;8.960;2023-08-12T11:02:17;5.67;;;5.37;;
3149;SDS011;32503;47.748;8.960;2023-08-12T11:04:50;5.30;;;5.10;;
3149;SDS011;32503;47.748;8.960;2023-08-12T11:07:20;4.80;;;4.60;;
3149;SDS011;32503;47.748;8.960;2023-08-12T11:09:51;5.23;;;5.03;;
3149;SDS011;32503;47.748;8.960;2023-08-12T11:12:27;5.70;;;5.50;;
3149;SDS011;32503;47.748;8.960;2023-08-12T11:14:57;6.13;;;5.83;;
3149;SDS011;32503;47.748;8.960;2023-08-12T11:17:31;5.73;;;5.40;;
3149;SDS011;32503;47.748;8.960;2023-08-12T11:20:02;4.50;;;4.30;;
3149;SDS011;32503;47.748;8.960;2023-08-12T11:22:32;5.30;;;5.10;;
3149;SDS011;32503;47.748;8.960;2023-08-12T11:25:04;5.80;;;5.40;;
3149;SDS011;32503;47.748;8.960;2023-08-12T11:27:37;4.63;;;4.23;;
3149;SDS011;32503;47.748;8.960;2023-08-12T11:30:07;4.60;;;4.40;;
3149;SDS011;32503;47.748;8.960;2023-08-12T11:32:36;5.43;;;5.23;;
3149;SDS011;32503;47.748;8.960;2023-08-12T11:35:06;4.77;;;4.53;;
3149;SDS011;32503;47.748;8.960;2023-08-12T11:37:36;4.80;;;4.60;;
3149;SDS011;32503;47.748;8.960;2023-08-12T11:40:04;4.30;;;4.10;;
3149;SDS011;32503;47.748;8.960;2023-08-12T11:42:34;4.90;;;4.70;;
3149;SDS011;32503;47.748;8.960;2023-08-12T11:45:01;4.90;;;4.50;;
3149;SDS011;32503;47.748;8.960;2023-08-12T11:47:29;5.03;;;4.73;;
3149;SDS011;32503;47.748;8.960;2023-08-12T11:49:56;5.10;;;4.90;;
3149;SDS011;32503;47.748;8.960;2023-08-12T11:52:25;4.97;;;4.77;;
3149;SDS011;32503;47.748;8.960;2023-08-12T11:54:52;4.70;;;4.50;;
3149;SDS011;32503;47.748;8.960;2023-08-12T11:57:21;4.70;;;4.50;;
3149;SDS011;32503;47.748;8.960;2023-08-12T11:59:49;4.00;;;3.90;;
3149;SDS011;32503;47.748;8.960;2023-08-12T12:02:16;4.70;;;4.50;;
3149;SDS011;32503;47.748;8.960;2023-08-12T12:04:44;4.37;;;4.17;;
3149;SDS011;32503;47.748;8.960;2023-08-12T12:07:17;5.20;;;4.80;;
3149;SDS011;32503;47.748;8.960;2023-08-12T12:09:49;4.47;;;4.23;;
3149;SDS011;32503;47.748;8.960;2023-08-12T12:12:18;4.77;;;4.57;;
3149;SDS011;32503;47.748;8.960;2023-08-12T12:14:50;4.63;;;4.43;;
3149;SDS011;32503;47.748;8.960;2023-08-12T12:17:20;5.03;;;4.82;;
3149;SDS011;32503;47.748;8.960;2023-08-12T12:19:51;4.07;;;3.97;;
3149;SDS011;32503;47.748;8.960;2023-08-12T12:22:25;4.33;;;4.03;;
3149;SDS011;32503;47.748;8.960;2023-08-12T12:24:57;4.60;;;4.30;;
3149;SDS011;32503;47.748;8.960;2023-08-12T12:27:25;3.60;;;3.50;;
3149;SDS011;32503;47.748;8.960;2023-08-12T12:29:53;3.57;;;3.43;;
3149;SDS011;32503;47.748;8.960;2023-08-12T12:32:20;3.60;;;3.50;;
3149;SDS011;32503;47.748;8.960;2023-08-12T12:34:47;3.80;;;3.70;;
3149;SDS011;32503;47.748;8.960;2023-08-12T12:37:14;3.43;;;3.33;;
3149;SDS011;32503;47.748;8.960;2023-08-12T12:39:42;4.07;;;3.87;;
3149;SDS011;32503;47.748;8.960;2023-08-12T12:42:11;3.53;;;3.33;;
3149;SDS011;32503;47.748;8.960;2023-08-12T12:44:40;3.50;;;3.30;;
3149;SDS011;32503;47.748;8.960;2023-08-12T12:47:09;3.57;;;3.37;;
3149;SDS011;32503;47.748;8.960;2023-08-12T12:49:37;3.80;;;3.60;;
3149;SDS011;32503;47.748;8.960;2023-08-12T12:52:15;3.93;;;3.83;;
3149;SDS011;32503;47.748;8.960;2023-08-12T12:54:42;3.10;;;2.90;;
3149;SDS011;32503;47.748;8.960;2023-08-12T12:57:11;3.80;;;3.60;;
3149;SDS011;32503;47.748;8.960;2023-08-12T12:59:38;3.73;;;3.60;;
3149;SDS011;32503;47.748;8.960;2023-08-12T13:02:05;3.50;;;3.30;;
3149;SDS011;32503;47.748;8.960;2023-08-12T13:04:33;3.13;;;3.03;;
3149;SDS011;32503;47.748;8.960;2023-08-12T13:07:00;3.87;;;3.57;;
3149;SDS011;32503;47.748;8.960;2023-08-12T13:09:27;3.53;;;3.33;;
3149;SDS011;32503;47.748;8.960;2023-08-12T13:11:56;2.87;;;2.73;;
3149;SDS011;32503;47.748;8.960;2023-08-12T13:14:24;3.03;;;2.93;;
3149;SDS011;32503;47.748;8.960;2023-08-12T13:16:54;2.30;;;2.20;;
3149;SDS011;32503;47.748;8.960;2023-08-12T13:19:21;2.73;;;2.63;;
3149;SDS011;32503;47.748;8.960;2023-08-12T13:21:48;2.53;;;2.33;;
3149;SDS011;32503;47.748;8.960;2023-08-12T13:24:15;2.60;;;2.40;;
3149;SDS011;32503;47.748;8.960;2023-08-12T13:26:42;2.10;;;2.00;;
3149;SDS011;32503;47.748;8.960;2023-08-12T13:29:09;2.37;;;2.27;;
3149;SDS011;32503;47.748;8.960;2023-08-12T13:31:37;3.03;;;2.83;;
3149;SDS011;32503;47.748;8.960;2023-08-12T13:34:05;2.30;;;2.20;;
3149;SDS011;32503;47.748;8.960;2023-08-12T13:36:32;1.80;;;1.70;;
3149;SDS011;32503;47.748;8.960;2023-08-12T13:38:59;1.80;;;1.70;;
3149;SDS011;32503;47.748;8.960;2023-08-12T13:41:26;2.03;;;1.93;;
3149;SDS011;32503;47.748;8.960;2023-08-12T13:43:53;2.30;;;2.20;;
3149;SDS011;32503;47.748;8.960;2023-08-12T13:46:20;2.60;;;2.50;;
3149;SDS011;32503;47.748;8.960;2023-08-12T13:48:49;2.83;;;2.73;;
3149;SDS011;32503;47.748;8.960;2023-08-12T13:51:16;2.80;;;2.70;;
3149;SDS011;32503;47.748;8.960;2023-08-12T13:53:43;3.00;;;2.90;;
3149;SDS011;32503;47.748;8.960;2023-08-12T13:56:10;2.70;;;2.60;;
3149;SDS011;32503;47.748;8.960;2023-08-12T13:58:37;3.20;;;3.00;;
3149;SDS011;32503;47.748;8.960;2023-08-12T14:01:04;4.07;;;3.87;;
3149;SDS011;32503;47.748;8.960;2023-08-12T14:03:31;3.53;;;3.33;;
3149;SDS011;32503;47.748;8.960;2023-08-12T14:06:00;4.07;;;3.87;;
3149;SDS011;32503;47.748;8.960;2023-08-12T14:08:27;3.70;;;3.60;;
3149;SDS011;32503;47.748;8.960;2023-08-12T14:10:54;3.97;;;3.77;;
3149;SDS011;32503;47.748;8.960;2023-08-12T14:13:21;4.50;;;4.30;;
3149;SDS011;32503;47.748;8.960;2023-08-12T14:15:48;5.63;;;5.33;;
3149;SDS011;32503;47.748;8.960;2023-08-12T14:18:15;4.07;;;3.70;;
3149;SDS011;32503;47.748;8.960;2023-08-12T14:20:42;3.93;;;3.73;;
3149;SDS011;32503;47.748;8.960;2023-08-12T14:23:11;4.70;;;4.50;;
3149;SDS011;32503;47.748;8.960;2023-08-12T14:25:38;4.50;;;4.20;;
3149;SDS011;32503;47.748;8.960;2023-08-12T14:28:05;4.40;;;4.20;;
3149;SDS011;32503;47.748;8.960;2023-08-12T14:30:32;4.10;;;3.90;;
3149;SDS011;32503;47.748;8.960;2023-08-12T14:33:00;4.60;;;4.30;;
3149;SDS011;32503;47.748;8.960;2023-08-12T14:35:27;4.50;;;4.20;;
3149;SDS011;32503;47.748;8.960;2023-08-12T14:37:54;4.30;;;4.10;;
3149;SDS011;32503;47.748;8.960;2023-08-12T14:40:22;4.53;;;4.13;;
3149;SDS011;32503;47.748;8.960;2023-08-12T14:42:49;4.53;;;4.33;;
3149;SDS011;32503;47.748;8.960;2023-08-12T14:45:16;4.40;;;4.20;;
3149;SDS011;32503;47.748;8.960;2023-08-12T14:47:43;4.07;;;3.90;;
3149;SDS011;32503;47.748;8.960;2023-08-12T14:50:11;4.10;;;3.90;;
3149;SDS011;32503;47.748;8.960;2023-08-12T14:52:38;4.20;;;4.00;;
3149;SDS011;32503;47.748;8.960;2023-08-12T14:55:05;4.30;;;4.20;;
3149;SDS011;32503;47.748;8.960;2023-08-12T14:57:35;4.03;;;3.93;;
3149;SDS011;32503;47.748;8.960;2023-08-12T15:00:02;4.40;;;4.20;;
3149;SDS011;32503;47.748;8.960;2023-08-12T15:02:31;3.97;;;3.83;;
3149;SDS011;32503;47.748;8.960;2023-08-12T15:04:59;4.30;;;3.93;;